Time;durP1;ratioP1;P1;durP2;ratioP2;P2;SDS_P1;SDS_P2;PMS_P1;PMS_P2;Temp;Humidity;BMP_temperature;BMP_pressure;BME280_temperature;BME280_humidity;BME280_pressure;Samples;Min_cycle;Max_cycle;Signal;HPM_P1;HPM_P2
2021/08/21 00:02:21;;;;;;;4.70;1.88;;;16.60;89.10;;;;;;5041159;28;20053;-75
2021/08/21 00:04:51;;;;;;;4.25;1.98;;;16.60;89.10;;;;;;5042897;28;20056;-74
2021/08/21 00:07:19;;;;;;;5.22;2.10;;;16.60;89.20;;;;;;5039871;28;20060;-74
2021/08/21 00:09:47;;;;;;;4.03;2.35;;;16.60;89.20;;;;;;5054124;28;20049;-74
2021/08/21 00:12:15;;;;;;;5.80;2.10;;;16.60;89.30;;;;;;5049190;28;20045;-75
2021/08/21 00:14:43;;;;;;;4.78;2.00;;;16.60;89.30;;;;;;5019882;28;20049;-74
2021/08/21 00:17:10;;;;;;;3.13;2.25;;;16.60;89.40;;;;;;5033679;28;20398;-74
2021/08/21 00:19:38;;;;;;;3.70;2.22;;;16.60;89.40;;;;;;5030390;28;20058;-74
2021/08/21 00:22:06;;;;;;;6.97;2.30;;;16.60;89.50;;;;;;5043672;28;20045;-74
2021/08/21 00:24:33;;;;;;;6.13;2.50;;;16.60;89.50;;;;;;5032489;28;20049;-74
2021/08/21 00:27:07;;;;;;;7.07;2.50;;;16.60;89.50;;;;;;5050119;28;20045;-74
2021/08/21 00:29:34;;;;;;;3.42;2.50;;;16.60;89.50;;;;;;5045496;28;20065;-74
2021/08/21 00:32:15;;;;;;;3.45;2.05;;;16.60;89.60;;;;;;5032543;28;20050;-74
2021/08/21 00:34:42;;;;;;;6.18;2.35;;;16.60;89.60;;;;;;5026950;28;20406;-74
2021/08/21 00:37:11;;;;;;;6.82;2.42;;;16.50;89.60;;;;;;5039434;28;20536;-74
2021/08/21 00:39:39;;;;;;;3.95;2.10;;;16.60;89.60;;;;;;5053210;28;20052;-74
2021/08/21 00:42:07;;;;;;;7.50;2.63;;;16.50;89.70;;;;;;5033670;28;20045;-74
2021/08/21 00:44:37;;;;;;;4.22;2.30;;;16.50;89.60;;;;;;5044903;28;20044;-74
2021/08/21 00:47:13;;;;;;;3.63;2.20;;;16.60;89.70;;;;;;5042007;28;20589;-74
2021/08/21 00:49:44;;;;;;;3.38;2.13;;;16.50;89.80;;;;;;5045461;28;20052;-74
2021/08/21 00:52:19;;;;;;;4.82;2.38;;;16.50;89.80;;;;;;5041480;28;20064;-74
2021/08/21 00:54:47;;;;;;;5.72;2.63;;;16.50;89.80;;;;;;5059885;28;20485;-74
2021/08/21 00:57:16;;;;;;;6.55;2.88;;;16.50;89.80;;;;;;5045580;28;20045;-74
2021/08/21 00:59:47;;;;;;;7.65;2.70;;;16.50;89.90;;;;;;5044721;28;20057;-74
2021/08/21 01:02:16;;;;;;;5.85;2.80;;;16.50;89.90;;;;;;5046049;28;20045;-73
2021/08/21 01:04:50;;;;;;;8.48;2.45;;;16.50;90.00;;;;;;5044403;28;20041;-73
2021/08/21 01:07:23;;;;;;;4.82;2.83;;;16.50;90.10;;;;;;5049846;28;20037;-73
2021/08/21 01:09:51;;;;;;;5.68;3.05;;;16.50;90.10;;;;;;5041349;28;20042;-73
2021/08/21 01:12:21;;;;;;;5.57;3.00;;;16.50;90.10;;;;;;5038510;28;20045;-73
2021/08/21 01:14:50;;;;;;;4.15;2.58;;;16.50;90.20;;;;;;5057774;28;20056;-73
2021/08/21 01:17:19;;;;;;;5.93;2.95;;;16.50;90.30;;;;;;5056018;28;20044;-72
2021/08/21 01:19:51;;;;;;;8.32;2.55;;;16.50;90.40;;;;;;5055399;28;20064;-72
2021/08/21 01:22:28;;;;;;;4.35;3.00;;;16.40;90.40;;;;;;5056547;28;20052;-72
2021/08/21 01:25:14;;;;;;;4.28;2.63;;;16.40;90.50;;;;;;5056716;28;20060;-72
2021/08/21 01:27:42;;;;;;;5.30;2.50;;;16.40;90.50;;;;;;5037280;28;20405;-72
2021/08/21 01:30:32;;;;;;;3.72;2.50;;;16.40;90.60;;;;;;5052646;28;20061;-72
2021/08/21 01:33:14;;;;;;;4.88;1.95;;;16.40;90.60;;;;;;5055296;28;20520;-72
2021/08/21 01:35:41;;;;;;;3.78;2.15;;;16.40;90.60;;;;;;5056479;28;20036;-73
2021/08/21 01:38:10;;;;;;;5.60;2.50;;;16.40;90.60;;;;;;5039286;28;20052;-73
2021/08/21 01:41:15;;;;;;;4.18;2.50;;;16.40;90.70;;;;;;5035685;28;20045;-73
2021/08/21 01:43:46;;;;;;;6.03;2.90;;;16.40;90.60;;;;;;5040210;28;20068;-73
2021/08/21 01:46:13;;;;;;;5.88;2.65;;;16.40;90.70;;;;;;5053905;28;20053;-73
2021/08/21 01:48:52;;;;;;;5.20;2.90;;;16.30;90.70;;;;;;5058648;28;20052;-74
2021/08/21 01:51:20;;;;;;;4.40;2.20;;;16.30;90.80;;;;;;5054484;28;20048;-73
2021/08/21 01:53:51;;;;;;;5.22;2.25;;;16.30;90.80;;;;;;5056297;28;20053;-74
2021/08/21 01:56:19;;;;;;;4.47;2.30;;;16.30;90.90;;;;;;5057076;28;20045;-73
2021/08/21 01:59:08;;;;;;;3.80;2.47;;;16.30;90.90;;;;;;5056192;28;20044;-73
2021/08/21 02:01:52;;;;;;;2.93;2.27;;;16.30;90.90;;;;;;5040883;28;20036;-73
2021/08/21 02:04:25;;;;;;;2.58;2.20;;;16.30;90.90;;;;;;5054446;28;20052;-73
2021/08/21 02:06:57;;;;;;;2.77;2.30;;;16.30;90.90;;;;;;5052789;28;21228;-73
2021/08/21 02:09:26;;;;;;;5.85;2.45;;;16.30;90.90;;;;;;5055415;28;20079;-74
2021/08/21 02:11:56;;;;;;;6.95;2.70;;;16.30;90.90;;;;;;5053449;28;20044;-73
2021/08/21 02:14:24;;;;;;;3.88;2.72;;;16.30;91.00;;;;;;5054307;28;20067;-73
2021/08/21 02:16:56;;;;;;;5.95;2.70;;;16.30;91.00;;;;;;5037177;28;20040;-74
2021/08/21 02:19:25;;;;;;;7.50;2.75;;;16.30;91.10;;;;;;5046352;28;20040;-74
2021/08/21 02:22:15;;;;;;;4.88;2.75;;;16.30;91.10;;;;;;5051684;28;20061;-74
2021/08/21 02:24:51;;;;;;;6.03;2.83;;;16.30;91.10;;;;;;5050953;28;20052;-74
2021/08/21 02:27:25;;;;;;;4.93;3.00;;;16.30;91.10;;;;;;5050769;28;20056;-74
2021/08/21 02:29:53;;;;;;;5.05;3.00;;;16.30;91.10;;;;;;5061914;28;20041;-73
2021/08/21 02:32:21;;;;;;;6.80;2.95;;;16.30;91.20;;;;;;5045763;28;20402;-73
2021/08/21 02:34:48;;;;;;;3.05;2.63;;;16.30;91.20;;;;;;5026009;28;20136;-74
2021/08/21 02:37:17;;;;;;;5.85;2.70;;;16.30;91.30;;;;;;5043695;28;20491;-74
2021/08/21 02:39:45;;;;;;;7.45;3.00;;;16.30;91.30;;;;;;5057893;28;20057;-74
2021/08/21 02:42:13;;;;;;;2.92;2.03;;;16.20;91.30;;;;;;5045978;28;20045;-74
2021/08/21 02:44:40;;;;;;;2.40;2.10;;;16.20;91.30;;;;;;5043025;28;20052;-74
2021/08/21 02:47:08;;;;;;;3.53;2.00;;;16.20;91.30;;;;;;5050512;28;20052;-74
2021/08/21 02:49:35;;;;;;;3.13;2.30;;;16.20;91.40;;;;;;5056876;28;20487;-74
2021/08/21 02:52:04;;;;;;;6.22;1.88;;;16.20;91.40;;;;;;5030419;28;20434;-74
2021/08/21 02:54:32;;;;;;;2.55;1.92;;;16.10;91.40;;;;;;5044755;28;20045;-74
2021/08/21 02:56:59;;;;;;;2.92;1.80;;;16.20;91.40;;;;;;5054196;28;20045;-74
2021/08/21 02:59:27;;;;;;;4.00;1.80;;;16.20;91.40;;;;;;5048139;28;20038;-74
2021/08/21 03:01:55;;;;;;;2.45;1.42;;;16.20;91.40;;;;;;5040287;28;20456;-74
2021/08/21 03:04:23;;;;;;;2.22;1.70;;;16.20;91.40;;;;;;5040845;28;20043;-74
2021/08/21 03:06:53;;;;;;;2.50;1.65;;;16.20;91.40;;;;;;5044690;28;20390;-74
2021/08/21 03:09:50;;;;;;;5.10;1.65;;;16.20;91.40;;;;;;5035491;28;20044;-74
2021/08/21 03:12:21;;;;;;;4.07;2.00;;;16.20;91.30;;;;;;5059436;28;20067;-74
2021/08/21 03:14:54;;;;;;;3.83;2.00;;;16.20;91.30;;;;;;5035971;28;20057;-74
2021/08/21 03:17:22;;;;;;;2.58;2.35;;;16.20;91.30;;;;;;5040263;28;20609;-74
2021/08/21 03:19:49;;;;;;;4.20;2.65;;;16.30;91.30;;;;;;5020700;28;20143;-74
2021/08/21 03:22:18;;;;;;;3.35;2.90;;;16.30;91.30;;;;;;5041502;28;20052;-74
2021/08/21 03:24:47;;;;;;;3.40;3.10;;;16.20;91.40;;;;;;5049189;28;20064;-74
2021/08/21 03:27:15;;;;;;;5.35;3.38;;;16.30;91.40;;;;;;5050365;28;20048;-74
2021/08/21 03:29:45;;;;;;;4.45;3.40;;;16.20;91.40;;;;;;5054592;28;20051;-74
2021/08/21 03:32:16;;;;;;;6.78;3.40;;;16.30;91.50;;;;;;5037810;28;20494;-74
2021/08/21 03:34:48;;;;;;;4.15;3.42;;;16.20;91.50;;;;;;5049469;28;20045;-75
2021/08/21 03:37:15;;;;;;;6.35;3.92;;;16.20;91.50;;;;;;5030908;28;20514;-74
2021/08/21 03:39:45;;;;;;;4.95;3.80;;;16.30;91.60;;;;;;5044814;28;20433;-74
2021/08/21 03:42:16;;;;;;;8.13;3.85;;;16.20;91.60;;;;;;5042991;28;20045;-75
2021/08/21 03:44:48;;;;;;;4.45;3.65;;;16.20;91.60;;;;;;5019342;28;20398;-75
2021/08/21 03:47:16;;;;;;;3.63;3.17;;;16.20;91.70;;;;;;5031818;28;20052;-75
2021/08/21 03:49:46;;;;;;;6.10;3.90;;;16.20;91.60;;;;;;5025269;28;20044;-75
2021/08/21 03:52:14;;;;;;;5.22;3.50;;;16.20;91.70;;;;;;5049351;28;20045;-75
2021/08/21 03:54:43;;;;;;;4.35;3.75;;;16.20;91.70;;;;;;5046378;28;20076;-75
2021/08/21 03:57:13;;;;;;;5.63;3.72;;;16.20;91.70;;;;;;5014334;28;20387;-75
2021/08/21 03:59:40;;;;;;;4.88;4.38;;;16.30;91.70;;;;;;5023232;28;20041;-75
2021/08/21 04:02:11;;;;;;;6.13;4.53;;;16.30;91.70;;;;;;5037905;28;20049;-75
2021/08/21 04:04:44;;;;;;;5.20;4.70;;;16.30;91.70;;;;;;5034865;28;20049;-75
2021/08/21 04:07:17;;;;;;;8.77;4.82;;;16.20;91.70;;;;;;5029505;28;20057;-75
2021/08/21 04:09:44;;;;;;;6.22;5.10;;;16.20;91.70;;;;;;5052072;28;20402;-75
2021/08/21 04:12:16;;;;;;;5.85;4.45;;;16.20;91.80;;;;;;5060234;28;20053;-75
2021/08/21 04:15:02;;;;;;;7.47;4.82;;;16.20;91.80;;;;;;5051748;28;20409;-75
2021/08/21 04:17:29;;;;;;;6.57;5.20;;;16.20;91.80;;;;;;5026862;28;20056;-75
2021/08/21 04:19:57;;;;;;;8.52;5.30;;;16.20;91.80;;;;;;5066036;28;20394;-75
2021/08/21 04:22:24;;;;;;;7.22;5.13;;;16.20;91.90;;;;;;5050141;28;20049;-75
2021/08/21 04:24:54;;;;;;;5.65;4.70;;;16.20;91.90;;;;;;5058549;28;21237;-75
2021/08/21 04:27:24;;;;;;;5.28;4.65;;;16.20;91.90;;;;;;5053731;28;20041;-75
2021/08/21 04:29:51;;;;;;;10.60;4.75;;;16.20;91.90;;;;;;5054009;28;20045;-75
2021/08/21 04:32:19;;;;;;;6.95;4.75;;;16.20;91.90;;;;;;5047119;28;20379;-75
2021/08/21 04:34:47;;;;;;;6.35;5.03;;;16.20;91.90;;;;;;5034117;28;20052;-75
2021/08/21 04:37:16;;;;;;;6.38;5.30;;;16.20;92.00;;;;;;5034941;28;20046;-74
2021/08/21 04:39:44;;;;;;;6.00;4.60;;;16.20;92.00;;;;;;5042260;28;20402;-72
2021/08/21 04:42:18;;;;;;;7.60;5.13;;;16.10;92.00;;;;;;5055851;28;20498;-73
2021/08/21 04:44:46;;;;;;;8.73;4.97;;;16.10;92.10;;;;;;5053474;28;20410;-73
2021/08/21 04:47:14;;;;;;;6.13;4.88;;;16.10;92.10;;;;;;5051736;28;20056;-73
2021/08/21 04:49:43;;;;;;;8.52;4.80;;;16.10;92.10;;;;;;5053781;28;20047;-74
2021/08/21 04:52:13;;;;;;;7.55;5.40;;;16.10;92.20;;;;;;5058739;28;20044;-74
2021/08/21 04:54:41;;;;;;;7.30;5.13;;;16.10;92.20;;;;;;5055173;28;20049;-74
2021/08/21 04:57:12;;;;;;;10.13;5.28;;;16.10;92.30;;;;;;5032727;28;20064;-74
2021/08/21 04:59:45;;;;;;;11.35;5.57;;;16.10;92.30;;;;;;5042445;28;20044;-75
2021/08/21 05:02:13;;;;;;;9.65;5.13;;;16.10;92.30;;;;;;5040568;28;20041;-75
2021/08/21 05:04:41;;;;;;;7.50;5.40;;;16.10;92.30;;;;;;5046666;28;20051;-75
2021/08/21 05:07:08;;;;;;;7.18;5.25;;;16.10;92.30;;;;;;5052789;28;20402;-74
2021/08/21 05:09:46;;;;;;;7.90;5.03;;;16.20;92.30;;;;;;5068253;28;20418;-74
2021/08/21 05:12:19;;;;;;;6.40;5.43;;;16.10;92.30;;;;;;5040663;28;20390;-76
2021/08/21 05:15:01;;;;;;;10.57;6.15;;;16.20;92.30;;;;;;5055356;28;20060;-75
2021/08/21 05:17:31;;;;;;;6.68;5.55;;;16.20;92.30;;;;;;5050413;28;20040;-75
2021/08/21 05:20:27;;;;;;;11.60;5.93;;;16.20;92.30;;;;;;5050882;28;20045;-75
2021/08/21 05:23:04;;;;;;;11.93;6.07;;;16.20;92.20;;;;;;5038663;28;20041;-75
2021/08/21 05:25:37;;;;;;;13.63;6.70;;;16.20;92.20;;;;;;5063044;28;20049;-75
2021/08/21 05:28:05;;;;;;;12.00;6.90;;;16.20;92.20;;;;;;5050250;28;20048;-74
2021/08/21 05:30:38;;;;;;;10.90;6.53;;;16.20;92.20;;;;;;5072849;28;20288;-74
2021/08/21 05:33:15;;;;;;;10.57;6.60;;;16.30;92.20;;;;;;5041929;28;20052;-75
2021/08/21 05:35:43;;;;;;;14.50;7.40;;;16.20;92.20;;;;;;5067021;28;20502;-75
2021/08/21 05:38:11;;;;;;;12.43;6.50;;;16.20;92.20;;;;;;5055676;28;20052;-75
2021/08/21 05:40:39;;;;;;;14.18;7.55;;;16.20;92.20;;;;;;5056388;28;20045;-75
2021/08/21 05:43:10;;;;;;;14.70;8.27;;;16.20;92.20;;;;;;5057032;28;20413;-75
2021/08/21 05:45:38;;;;;;;13.50;8.30;;;16.20;92.20;;;;;;5055122;28;20505;-75
2021/08/21 05:48:06;;;;;;;12.27;8.07;;;16.30;92.30;;;;;;5048766;28;21263;-75
2021/08/21 05:50:33;;;;;;;15.55;9.07;;;16.30;92.20;;;;;;5073644;28;20040;-75
2021/08/21 05:53:01;;;;;;;16.23;8.93;;;16.30;92.20;;;;;;5073779;28;20501;-75
2021/08/21 05:55:30;;;;;;;16.88;9.73;;;16.30;92.20;;;;;;5071938;28;20048;-74
2021/08/21 05:58:02;;;;;;;14.82;8.88;;;16.30;92.20;;;;;;5067285;28;20052;-75
2021/08/21 06:00:30;;;;;;;16.00;10.00;;;16.30;92.20;;;;;;5033453;28;20056;-75
2021/08/21 06:02:58;;;;;;;17.98;9.85;;;16.30;92.20;;;;;;5038983;28;20046;-75
2021/08/21 06:05:26;;;;;;;20.52;10.32;;;16.30;92.20;;;;;;5035766;28;20050;-75
2021/08/21 06:08:00;;;;;;;19.38;10.50;;;16.30;92.20;;;;;;5019561;28;20045;-75
2021/08/21 06:10:33;;;;;;;21.02;11.68;;;16.30;92.20;;;;;;5061478;28;20047;-75
2021/08/21 06:13:02;;;;;;;22.23;11.38;;;16.30;92.20;;;;;;5037469;28;20052;-75
2021/08/21 06:15:29;;;;;;;23.98;11.75;;;16.30;92.20;;;;;;5049045;28;20052;-75
2021/08/21 06:17:57;;;;;;;27.42;13.02;;;16.40;92.20;;;;;;5047457;28;20478;-75
2021/08/21 06:20:24;;;;;;;21.33;11.93;;;16.40;92.20;;;;;;5053592;28;20055;-75
2021/08/21 06:22:52;;;;;;;23.48;12.23;;;16.40;92.20;;;;;;5044868;28;20396;-75
2021/08/21 06:25:20;;;;;;;25.58;11.93;;;16.40;92.20;;;;;;5044285;28;20041;-75
2021/08/21 06:27:49;;;;;;;21.48;11.90;;;16.50;92.20;;;;;;5050510;28;20064;-75
2021/08/21 06:30:17;;;;;;;25.88;12.93;;;16.50;92.20;;;;;;5059814;28;20041;-75
2021/08/21 06:32:45;;;;;;;22.40;12.18;;;16.50;92.20;;;;;;5052984;28;20053;-74
2021/08/21 06:35:13;;;;;;;24.90;12.77;;;16.50;92.20;;;;;;5051402;28;20056;-75
2021/08/21 06:37:40;;;;;;;20.77;12.10;;;16.60;92.10;;;;;;5047341;28;20037;-75
2021/08/21 06:40:09;;;;;;;22.52;12.55;;;16.60;92.10;;;;;;5057148;28;20116;-75
2021/08/21 06:42:36;;;;;;;22.85;12.75;;;16.70;92.10;;;;;;5055162;28;20055;-75
2021/08/21 06:45:14;;;;;;;23.33;12.57;;;16.70;92.00;;;;;;5047332;28;20036;-75
2021/08/21 06:47:42;;;;;;;25.77;12.65;;;16.60;91.90;;;;;;5034447;28;20409;-75
2021/08/21 06:50:10;;;;;;;24.20;12.60;;;16.70;91.90;;;;;;5054975;28;20056;-75
2021/08/21 06:52:38;;;;;;;21.60;12.57;;;16.70;91.80;;;;;;5050498;28;20049;-75
2021/08/21 06:55:06;;;;;;;27.85;13.93;;;16.80;91.80;;;;;;5050509;28;20056;-75
2021/08/21 06:57:34;;;;;;;27.55;13.63;;;16.80;91.80;;;;;;5046757;28;20056;-75
2021/08/21 07:00:02;;;;;;;27.23;13.40;;;16.80;91.80;;;;;;5051702;28;20045;-75
2021/08/21 07:02:30;;;;;;;22.92;13.43;;;16.80;91.80;;;;;;5032267;28;20053;-75
2021/08/21 07:04:58;;;;;;;25.13;14.40;;;16.80;91.70;;;;;;5051768;28;20044;-75
2021/08/21 07:07:26;;;;;;;22.17;13.60;;;16.90;91.60;;;;;;5042784;28;20498;-75
2021/08/21 07:09:58;;;;;;;23.45;13.45;;;16.90;91.50;;;;;;5057445;28;20053;-75
2021/08/21 07:12:28;;;;;;;26.48;14.38;;;16.90;91.50;;;;;;5066138;28;20053;-74
2021/08/21 07:14:56;;;;;;;24.92;13.55;;;17.00;91.30;;;;;;5046520;28;20056;-74
2021/08/21 07:17:24;;;;;;;24.35;13.60;;;17.00;91.30;;;;;;5041952;28;20045;-74
2021/08/21 07:19:52;;;;;;;21.50;13.27;;;17.00;91.20;;;;;;5045183;28;20033;-75
2021/08/21 07:22:19;;;;;;;24.60;13.45;;;17.00;91.10;;;;;;5031730;28;20517;-75
2021/08/21 07:24:47;;;;;;;23.30;13.40;;;17.00;91.10;;;;;;5049894;28;20044;-74
2021/08/21 07:27:14;;;;;;;22.70;13.75;;;17.10;91.00;;;;;;5063011;28;20045;-75
2021/08/21 07:29:42;;;;;;;24.58;13.05;;;17.10;91.00;;;;;;5052871;28;20041;-74
2021/08/21 07:32:09;;;;;;;22.40;12.90;;;17.20;90.90;;;;;;5062633;28;20044;-75
2021/08/21 07:34:38;;;;;;;24.17;13.15;;;17.30;90.70;;;;;;5050157;28;20049;-75
2021/08/21 07:37:05;;;;;;;21.08;12.98;;;17.40;90.60;;;;;;5052627;28;20072;-74
2021/08/21 07:39:33;;;;;;;19.58;12.73;;;17.40;90.40;;;;;;5052660;28;20060;-75
2021/08/21 07:42:00;;;;;;;18.50;12.40;;;17.50;90.30;;;;;;5049883;28;20045;-75
2021/08/21 07:44:28;;;;;;;20.15;13.35;;;17.50;90.20;;;;;;5050480;28;20466;-75
2021/08/21 07:46:56;;;;;;;21.00;12.73;;;17.50;90.00;;;;;;5034229;28;20042;-75
2021/08/21 07:49:24;;;;;;;16.63;12.23;;;17.50;90.00;;;;;;5058567;28;20049;-75
2021/08/21 07:51:52;;;;;;;18.52;12.57;;;17.50;90.00;;;;;;5036078;28;20049;-75
2021/08/21 07:54:19;;;;;;;25.98;13.40;;;17.50;89.90;;;;;;5045507;28;20064;-75
2021/08/21 07:56:47;;;;;;;20.30;12.30;;;17.40;89.90;;;;;;5045656;28;20057;-75
2021/08/21 07:59:14;;;;;;;22.45;12.68;;;17.40;89.80;;;;;;5047722;28;20033;-75
2021/08/21 08:01:42;;;;;;;16.63;11.25;;;17.40;89.80;;;;;;5045978;28;20041;-75
2021/08/21 08:04:09;;;;;;;18.73;11.60;;;17.40;89.70;;;;;;5048982;28;20068;-75
2021/08/21 08:06:37;;;;;;;14.65;10.63;;;17.40;89.70;;;;;;5054193;28;20509;-74
2021/08/21 08:09:05;;;;;;;17.35;11.32;;;17.30;89.60;;;;;;5059519;28;20059;-73
2021/08/21 08:11:32;;;;;;;18.05;10.70;;;17.30;89.60;;;;;;5049597;28;20053;-74
2021/08/21 08:14:01;;;;;;;19.70;9.23;;;17.30;89.60;;;;;;5049980;28;20072;-75
2021/08/21 08:16:29;;;;;;;15.38;10.18;;;17.30;89.50;;;;;;5054338;28;20049;-74
2021/08/21 08:19:02;;;;;;;16.77;9.68;;;17.30;89.40;;;;;;5056234;28;20406;-75
2021/08/21 08:21:30;;;;;;;17.52;11.27;;;17.30;89.50;;;;;;5053165;28;20041;-74
2021/08/21 08:23:58;;;;;;;16.38;10.90;;;17.30;89.60;;;;;;5047705;28;20394;-74
2021/08/21 08:26:25;;;;;;;22.13;11.80;;;17.20;89.70;;;;;;5033134;28;20045;-74
2021/08/21 08:28:53;;;;;;;24.58;11.88;;;17.10;89.80;;;;;;5047560;28;20057;-74
2021/08/21 08:31:21;;;;;;;20.52;12.43;;;17.10;89.90;;;;;;5045118;28;20037;-73
2021/08/21 08:33:48;;;;;;;28.45;14.48;;;17.10;90.00;;;;;;5049359;28;20057;-72
2021/08/21 08:36:16;;;;;;;25.17;12.88;;;17.10;90.10;;;;;;5053714;28;20049;-72
2021/08/21 08:38:44;;;;;;;18.48;11.38;;;17.10;90.20;;;;;;5057590;28;20674;-72
2021/08/21 08:41:12;;;;;;;24.23;12.82;;;17.20;90.20;;;;;;5053976;28;20044;-72
2021/08/21 08:43:42;;;;;;;21.08;11.68;;;17.20;90.20;;;;;;5041799;28;20057;-72
2021/08/21 08:46:10;;;;;;;20.02;10.65;;;17.30;90.20;;;;;;5050452;28;20040;-73
2021/08/21 08:48:39;;;;;;;16.92;10.25;;;17.30;90.20;;;;;;5049499;28;20048;-73
2021/08/21 08:51:08;;;;;;;14.98;9.23;;;17.30;90.20;;;;;;5051778;28;20040;-73
2021/08/21 08:53:35;;;;;;;8.82;6.00;;;17.30;90.20;;;;;;5050945;28;20057;-72
2021/08/21 08:56:04;;;;;;;10.30;6.20;;;17.40;90.10;;;;;;5030676;28;20427;-73
2021/08/21 08:58:32;;;;;;;6.68;4.40;;;17.40;89.90;;;;;;5051170;28;20045;-72
2021/08/21 09:01:00;;;;;;;4.82;3.17;;;17.30;89.80;;;;;;5045171;28;20049;-72
2021/08/21 09:03:28;;;;;;;4.95;2.45;;;17.30;89.60;;;;;;5050287;28;20059;-72
2021/08/21 09:05:56;;;;;;;3.75;2.40;;;17.30;89.30;;;;;;5052736;28;20052;-73
2021/08/21 09:08:27;;;;;;;3.55;2.45;;;17.30;89.10;;;;;;5048553;28;20069;-73
2021/08/21 09:10:59;;;;;;;3.03;2.00;;;17.20;89.20;;;;;;5044706;28;20059;-73
2021/08/21 09:13:28;;;;;;;4.30;1.70;;;17.20;89.20;;;;;;5048781;28;20132;-73
2021/08/21 09:15:59;;;;;;;2.75;1.67;;;17.20;89.20;;;;;;5052852;28;20049;-74
2021/08/21 09:18:30;;;;;;;5.13;1.50;;;17.10;89.10;;;;;;5051653;28;20053;-74
2021/08/21 09:21:13;;;;;;;1.58;1.20;;;17.10;89.20;;;;;;5053217;28;20048;-73
2021/08/21 09:23:46;;;;;;;2.42;1.30;;;17.10;89.10;;;;;;5055283;28;20048;-74
2021/08/21 09:26:20;;;;;;;;;;;17.00;89.20;;;;;;5032933;28;20080;-74
2021/08/21 09:28:51;;;;;;;4.80;1.10;;;17.00;89.20;;;;;;5053275;28;20370;-73
2021/08/21 09:31:21;;;;;;;1.55;0.80;;;16.90;89.20;;;;;;5052101;28;20048;-74
2021/08/21 09:34:01;;;;;;;1.88;0.95;;;16.90;89.20;;;;;;5051523;28;20411;-73
2021/08/21 09:36:44;;;;;;;1.23;1.10;;;16.90;89.20;;;;;;5051325;28;20033;-74
2021/08/21 09:39:14;;;;;;;2.77;1.20;;;16.90;89.30;;;;;;5048820;28;20037;-74
2021/08/21 09:41:55;;;;;;;4.43;1.30;;;16.90;89.40;;;;;;5052691;28;20714;-74
2021/08/21 09:44:27;;;;;;;4.40;1.08;;;17.00;89.40;;;;;;5051306;28;20048;-74
2021/08/21 09:47:23;;;;;;;3.67;1.10;;;17.10;89.30;;;;;;5047240;28;20041;-74
2021/08/21 09:49:53;;;;;;;1.98;1.25;;;17.30;89.20;;;;;;5047151;28;20462;-74
2021/08/21 09:52:22;;;;;;;1.63;1.35;;;17.30;89.00;;;;;;5047983;28;20282;-74
2021/08/21 09:55:06;;;;;;;2.13;1.60;;;17.40;88.90;;;;;;5048937;28;20056;-74
2021/08/21 09:57:34;;;;;;;2.17;1.70;;;17.50;88.70;;;;;;5048905;28;20057;-74
2021/08/21 10:00:04;;;;;;;3.25;2.20;;;17.60;88.60;;;;;;5053400;28;20052;-74
2021/08/21 10:02:42;;;;;;;2.55;2.10;;;17.70;88.60;;;;;;5053126;28;20033;-74
2021/08/21 10:05:10;;;;;;;4.35;2.38;;;17.70;88.60;;;;;;5049488;28;20045;-72
2021/08/21 10:16:26;;;;;;;3.08;2.15;;;18.00;88.10;;;;;;5110387;24;20067;-71
2021/08/21 10:18:54;;;;;;;3.28;2.17;;;18.00;88.00;;;;;;4826500;29;20058;-71
2021/08/21 10:21:22;;;;;;;1.80;1.70;;;18.10;87.90;;;;;;4857753;29;20415;-71
2021/08/21 10:23:51;;;;;;;2.38;1.95;;;18.20;87.80;;;;;;4823615;29;20376;-70
2021/08/21 10:26:34;;;;;;;1.77;1.63;;;18.30;87.50;;;;;;4842409;29;20065;-72
2021/08/21 10:29:02;;;;;;;2.22;1.40;;;18.30;87.00;;;;;;4840977;29;20445;-71
2021/08/21 10:31:47;;;;;;;2.55;1.50;;;18.40;86.80;;;;;;4846242;29;20070;-71
2021/08/21 10:34:15;;;;;;;1.55;1.40;;;18.40;86.50;;;;;;4844515;29;20488;-71
2021/08/21 10:36:51;;;;;;;2.78;1.77;;;18.50;86.20;;;;;;4844608;29;20045;-71
2021/08/21 10:39:25;;;;;;;1.60;1.50;;;18.60;86.40;;;;;;4824175;29;20496;-71
2021/08/21 10:41:54;;;;;;;2.22;2.03;;;18.70;86.10;;;;;;4822909;29;20050;-71
2021/08/21 10:44:56;;;;;;;3.50;1.60;;;18.90;86.00;;;;;;4822842;29;20063;-71
2021/08/21 10:47:36;;;;;;;0.98;0.93;;;19.00;85.90;;;;;;4845860;29;20052;-71
2021/08/21 10:50:15;;;;;;;1.50;1.05;;;19.20;85.30;;;;;;4843836;29;20049;-72
2021/08/21 10:52:53;;;;;;;1.65;1.17;;;19.30;84.40;;;;;;4843978;29;20507;-71
2021/08/21 10:55:44;;;;;;;2.97;1.38;;;19.30;84.10;;;;;;4845513;29;20065;-71
2021/08/21 10:58:13;;;;;;;2.08;1.30;;;19.10;84.00;;;;;;4841417;29;20049;-71
2021/08/21 11:00:41;;;;;;;1.70;1.23;;;19.00;83.90;;;;;;4840360;29;20062;-71
2021/08/21 11:03:14;;;;;;;1.73;1.38;;;18.80;84.00;;;;;;4842031;29;20058;-72
2021/08/21 11:05:58;;;;;;;2.13;1.37;;;18.70;84.10;;;;;;4825748;29;20515;-72
2021/08/21 11:08:28;;;;;;;1.77;1.42;;;18.50;84.30;;;;;;4841881;29;20056;-72
2021/08/21 11:11:12;;;;;;;1.63;1.40;;;18.40;84.40;;;;;;4840641;29;20045;-72
2021/08/21 11:14:08;;;;;;;3.47;1.35;;;18.30;84.60;;;;;;4841357;29;20061;-72
2021/08/21 11:16:48;;;;;;;2.92;1.30;;;18.30;84.80;;;;;;4835269;29;20420;-71
2021/08/21 11:19:32;;;;;;;2.05;1.60;;;18.30;84.70;;;;;;4791787;29;20059;-73
2021/08/21 11:22:08;;;;;;;4.30;1.40;;;18.30;84.90;;;;;;4804248;29;20081;-71
2021/08/21 11:24:38;;;;;;;1.70;1.30;;;18.30;84.90;;;;;;4804477;29;20071;-73
2021/08/21 11:27:28;;;;;;;2.05;1.35;;;18.30;85.00;;;;;;4836640;29;20489;-72
2021/08/21 11:30:17;;;;;;;1.88;1.38;;;18.40;84.90;;;;;;4825613;29;20062;-71
2021/08/21 11:32:55;;;;;;;2.17;1.30;;;18.40;84.90;;;;;;4807040;29;20059;-72
2021/08/21 11:35:27;;;;;;;1.58;1.33;;;18.40;84.90;;;;;;4803701;29;20416;-72
2021/08/21 11:37:56;;;;;;;2.90;1.30;;;18.40;84.90;;;;;;4822335;29;20054;-72
2021/08/21 11:40:36;;;;;;;2.83;1.55;;;18.30;84.80;;;;;;4822319;29;20054;-72
2021/08/21 11:43:06;;;;;;;3.08;1.70;;;18.30;84.80;;;;;;4821445;29;20047;-75
2021/08/21 11:45:34;;;;;;;4.05;1.90;;;18.20;84.90;;;;;;4816474;29;20046;-73
2021/08/21 11:48:03;;;;;;;2.38;1.80;;;18.20;85.00;;;;;;4821627;29;20511;-73
2021/08/21 11:50:39;;;;;;;3.00;1.90;;;18.10;85.30;;;;;;4823216;29;20067;-73
2021/08/21 11:53:13;;;;;;;6.03;2.03;;;18.10;85.60;;;;;;4817232;29;20046;-73
2021/08/21 11:55:40;;;;;;;4.90;2.50;;;18.00;85.80;;;;;;4832645;29;20054;-73
2021/08/21 11:58:10;;;;;;;4.05;2.35;;;18.00;86.10;;;;;;4837621;29;20050;-73
2021/08/21 12:00:40;;;;;;;6.30;2.92;;;18.10;86.30;;;;;;4816278;29;20447;-72
2021/08/21 12:03:11;;;;;;;4.05;2.47;;;18.20;86.40;;;;;;4822480;29;20413;-73
2021/08/21 12:05:44;;;;;;;3.38;2.40;;;18.30;86.40;;;;;;4815840;29;20065;-73
2021/08/21 12:08:23;;;;;;;2.80;2.50;;;18.50;86.30;;;;;;4823231;29;20046;-73
2021/08/21 12:10:52;;;;;;;3.38;2.78;;;18.60;85.90;;;;;;4813544;29;20066;-72
2021/08/21 12:13:29;;;;;;;2.40;2.20;;;18.70;85.70;;;;;;4832806;29;20051;-73
2021/08/21 12:16:08;;;;;;;7.40;2.53;;;18.80;85.50;;;;;;4824005;29;20055;-73
2021/08/21 12:18:38;;;;;;;4.10;2.67;;;18.80;85.30;;;;;;4822507;29;20519;-73
2021/08/21 12:21:15;;;;;;;4.32;2.70;;;18.80;85.30;;;;;;4823216;29;20046;-73
2021/08/21 12:23:44;;;;;;;3.03;2.72;;;18.90;85.20;;;;;;4817086;29;20065;-73
2021/08/21 12:26:12;;;;;;;3.28;2.60;;;19.00;85.30;;;;;;4816980;29;20092;-74
2021/08/21 12:28:45;;;;;;;4.45;2.63;;;19.10;84.80;;;;;;4816101;29;20416;-73
2021/08/21 12:31:16;;;;;;;3.33;2.70;;;19.20;84.50;;;;;;4817848;29;20057;-74
2021/08/21 12:33:46;;;;;;;4.57;2.45;;;19.30;84.50;;;;;;4816681;29;20051;-73
2021/08/21 12:36:21;;;;;;;3.78;2.60;;;19.30;84.10;;;;;;4814423;29;20066;-73
2021/08/21 12:39:05;;;;;;;2.35;2.22;;;19.40;83.70;;;;;;4819480;29;20059;-73
2021/08/21 12:41:55;;;;;;;2.85;2.33;;;19.40;83.40;;;;;;4816341;29;20050;-72
2021/08/21 12:44:37;;;;;;;3.72;2.67;;;19.30;83.40;;;;;;4818100;29;20458;-73
2021/08/21 12:47:11;;;;;;;5.70;3.03;;;19.10;83.70;;;;;;4820916;29;20061;-73
2021/08/21 12:49:41;;;;;;;3.70;2.90;;;19.00;84.10;;;;;;4827854;29;20417;-73
2021/08/21 12:52:12;;;;;;;3.33;3.00;;;18.80;84.30;;;;;;4806411;29;20054;-73
2021/08/21 12:54:41;;;;;;;3.97;3.08;;;18.80;84.40;;;;;;4819983;29;20115;-72
2021/08/21 12:57:18;;;;;;;5.80;3.20;;;18.80;84.50;;;;;;4823110;29;20050;-72
2021/08/21 12:59:47;;;;;;;5.05;3.25;;;18.90;84.30;;;;;;4827839;29;20049;-72
2021/08/21 13:02:17;;;;;;;5.43;3.28;;;19.00;84.20;;;;;;4829969;29;20038;-72
2021/08/21 13:05:01;;;;;;;4.47;3.47;;;19.00;84.10;;;;;;4820482;29;20428;-73
2021/08/21 13:07:45;;;;;;;;;;;19.10;83.90;;;;;;4829275;29;20066;-72
2021/08/21 13:10:18;;;;;;;7.57;3.47;;;19.10;83.70;;;;;;4825068;29;19931;-74
2021/08/21 13:12:47;;;;;;;4.60;3.30;;;19.10;83.80;;;;;;4849137;29;20425;-73
2021/08/21 13:15:16;;;;;;;3.60;3.22;;;19.20;83.60;;;;;;4826019;29;20050;-74